Time;durP1;ratioP1;P1;durP2;ratioP2;P2;SDS_P1;SDS_P2;PMS_P1;PMS_P2;Temp;Humidity;BMP_temperature;BMP_pressure;BME280_temperature;BME280_humidity;BME280_pressure;Samples;Min_cycle;Max_cycle;Signal;HPM_P1;HPM_P2
2022/05/14 00:00:44;;;;;;;4.32;3.95;;;;;;;8.19;100.00;93560.44;2098907;28;20024;-79
2022/05/14 00:01:45;;;;;;;4.80;4.00;;;;;;;8.21;100.00;93560.84;2098195;28;20017;-80
2022/05/14 00:02:46;;;;;;;5.95;4.55;;;;;;;8.26;100.00;93560.41;2102041;28;20393;-80
2022/05/14 00:03:47;;;;;;;4.15;3.67;;;;;;;8.21;100.00;93560.06;2098353;28;20028;-81
2022/05/14 00:04:48;;;;;;;5.55;3.65;;;;;;;8.24;100.00;93562.69;2106824;28;20024;-81
2022/05/14 00:05:49;;;;;;;5.55;4.05;;;;;;;8.12;100.00;93559.72;2098487;28;20024;-81
2022/05/14 00:06:51;;;;;;;5.85;4.10;;;;;;;8.08;100.00;93555.19;2098466;28;20744;-80
2022/05/14 00:08:04;;;;;;;4.25;3.75;;;;;;;8.10;100.00;93560.13;2106992;27;20020;-79
2022/05/14 00:09:07;;;;;;;4.75;3.92;;;;;;;8.18;100.00;93553.63;2105813;28;20035;-80
2022/05/14 00:10:08;;;;;;;5.97;3.97;;;;;;;8.19;100.00;93559.69;2102814;28;20039;-79
2022/05/14 00:13:50;;;;;;;5.05;3.40;;;;;;;8.20;100.00;93551.31;2108528;28;20097;-81
2022/05/14 00:14:51;;;;;;;3.60;3.13;;;;;;;8.19;100.00;93555.13;2106262;28;20709;-79
2022/05/14 00:15:52;;;;;;;5.88;3.47;;;;;;;8.15;100.00;93549.06;2106573;28;20103;-80
2022/05/14 00:16:53;;;;;;;6.20;3.72;;;;;;;8.09;100.00;93555.94;2107071;28;20035;-80
2022/05/14 00:17:54;;;;;;;5.68;3.45;;;;;;;8.13;100.00;93554.03;2106808;28;20436;-79
2022/05/14 00:18:55;;;;;;;6.38;3.67;;;;;;;8.16;100.00;93560.47;2106832;28;20020;-81
2022/05/14 00:19:56;;;;;;;7.32;3.75;;;;;;;8.10;100.00;93551.38;2106737;28;20464;-82
2022/05/14 00:20:59;;;;;;;5.22;3.80;;;;;;;8.14;100.00;93550.22;2103725;28;20023;-80
2022/05/14 00:22:00;;;;;;;5.75;3.67;;;;;;;8.12;100.00;93557.06;2106817;28;20466;-82
2022/05/14 00:23:03;;;;;;;4.30;3.60;;;;;;;8.12;100.00;93549.06;2112690;28;20027;-81
2022/05/14 00:24:06;;;;;;;5.68;3.97;;;;;;;8.08;100.00;93549.88;2107052;28;20051;-82
2022/05/14 00:25:07;;;;;;;5.15;3.72;;;;;;;8.07;100.00;93551.00;2108063;28;20028;-81
2022/05/14 00:26:08;;;;;;;6.15;3.85;;;;;;;8.10;100.00;93549.47;2105846;28;20071;-80
2022/05/14 00:27:09;;;;;;;6.15;3.53;;;;;;;8.12;100.00;93549.06;2111047;28;20038;-79
2022/05/14 00:28:13;;;;;;;5.45;3.53;;;;;;;8.22;100.00;93548.28;2105576;28;20024;-80
2022/05/14 00:29:14;;;;;;;3.75;3.45;;;;;;;8.13;100.00;93545.28;2115449;28;20038;-80
2022/05/14 00:30:17;;;;;;;3.90;3.42;;;;;;;8.12;100.00;93546.41;2106521;28;20031;-81
2022/05/14 00:31:18;;;;;;;5.90;3.65;;;;;;;8.10;100.00;93544.16;2098698;28;20031;-81
2022/05/14 00:32:19;;;;;;;4.05;3.60;;;;;;;8.10;100.00;93546.81;2106610;28;20123;-81
2022/05/14 00:33:20;;;;;;;3.83;3.50;;;;;;;7.99;100.00;93541.56;2123354;27;20030;-80
2022/05/14 00:34:21;;;;;;;4.95;3.13;;;;;;;8.03;100.00;93544.16;2115127;27;20106;-81
2022/05/14 00:35:22;;;;;;;4.80;3.28;;;;;;;8.09;100.00;93547.97;2123319;27;20656;-81
2022/05/14 00:36:23;;;;;;;5.10;3.53;;;;;;;8.02;100.00;93543.41;2106582;28;20400;-79
2022/05/14 00:37:24;;;;;;;9.02;3.17;;;;;;;7.85;100.00;93538.94;2106652;28;20077;-80
2022/05/14 00:38:25;;;;;;;5.53;3.55;;;;;;;7.93;100.00;93540.41;2106290;28;20458;-81
2022/05/14 00:39:26;;;;;;;5.45;3.30;;;;;;;8.03;100.00;93542.28;2106613;28;20019;-81
2022/05/14 00:40:29;;;;;;;3.28;2.95;;;;;;;8.11;100.00;93543.00;2109927;28;20028;-81
2022/05/14 00:41:30;;;;;;;4.47;3.50;;;;;;;8.02;100.00;93546.06;2095727;28;20024;-80
2022/05/14 00:42:31;;;;;;;7.20;3.60;;;;;;;7.95;100.00;93546.13;2098271;28;20063;-80
2022/05/14 00:43:34;;;;;;;7.57;3.78;;;;;;;8.05;100.00;93541.91;2098286;28;20024;-80
2022/05/14 00:44:35;;;;;;;6.28;3.35;;;;;;;7.99;100.00;93544.22;2098556;28;20392;-81
2022/05/14 00:45:41;;;;;;;5.97;3.10;;;;;;;7.98;100.00;93537.34;2114906;28;20031;-80
2022/05/14 00:47:04;;;;;;;4.05;3.53;;;;;;;7.96;100.00;93552.97;2106312;28;20392;-80
2022/05/14 00:48:07;;;;;;;4.68;3.25;;;;;;;7.95;100.00;93540.81;2104391;28;20023;-80
2022/05/14 00:49:20;;;;;;;6.22;3.15;;;;;;;7.96;100.00;93542.31;2114913;28;20076;-80
2022/05/14 00:50:26;;;;;;;5.45;3.20;;;;;;;7.85;100.00;93543.50;2114169;28;20023;-81
2022/05/14 00:51:29;;;;;;;5.55;3.15;;;;;;;7.97;100.00;93545.72;2106178;28;20030;-81
2022/05/14 00:52:30;;;;;;;4.72;3.55;;;;;;;7.93;100.00;93537.75;2098396;28;20760;-81
2022/05/14 00:53:35;;;;;;;3.97;3.28;;;;;;;7.83;100.00;93541.25;2105795;28;20431;-80
2022/05/14 00:55:03;;;;;;;5.10;3.47;;;;;;;7.96;100.00;93539.66;2107187;28;20016;-80
2022/05/14 00:56:09;;;;;;;3.63;2.95;;;;;;;7.88;100.00;93535.50;2118610;27;20631;-80
2022/05/14 00:57:13;;;;;;;7.32;3.17;;;;;;;7.98;100.00;93540.00;2113945;28;20507;-81
2022/05/14 00:58:25;;;;;;;4.88;3.30;;;;;;;7.98;100.00;93533.94;2114749;28;20688;-81
2022/05/14 00:59:26;;;;;;;5.22;3.33;;;;;;;7.98;100.00;93542.66;2107835;28;20024;-81
2022/05/14 01:00:29;;;;;;;9.90;3.05;;;;;;;8.05;100.00;93537.31;2103626;28;20047;-80
2022/05/14 01:01:30;;;;;;;4.90;2.70;;;;;;;8.05;100.00;93534.66;2105593;28;20504;-80
2022/05/14 01:02:31;;;;;;;7.03;3.28;;;;;;;8.02;100.00;93537.34;2111905;28;20557;-81
2022/05/14 01:03:32;;;;;;;4.40;3.45;;;;;;;8.09;100.00;93534.66;2114758;28;20039;-79
2022/05/14 01:04:34;;;;;;;4.43;3.13;;;;;;;8.22;100.00;93534.97;2112647;28;20084;-81
2022/05/14 01:05:35;;;;;;;4.18;2.90;;;;;;;8.21;100.00;93536.09;2106380;28;20028;-80
2022/05/14 01:06:40;;;;;;;4.72;3.75;;;;;;;8.17;100.00;93532.72;2097618;28;20342;-80
2022/05/14 01:07:41;;;;;;;5.25;3.20;;;;;;;8.11;100.00;93531.59;2107131;28;20028;-80
2022/05/14 01:08:44;;;;;;;5.53;3.28;;;;;;;8.12;100.00;93525.09;2115356;28;20023;-79
2022/05/14 01:09:55;;;;;;;4.53;2.90;;;;;;;8.12;100.00;93528.56;2114721;28;20020;-81
2022/05/14 01:10:57;;;;;;;6.05;2.58;;;;;;;8.18;100.00;93534.22;2107665;28;20507;-80
2022/05/14 01:11:58;;;;;;;6.78;2.97;;;;;;;8.02;100.00;93535.44;2114536;28;20083;-81
2022/05/14 01:13:02;;;;;;;3.83;2.63;;;;;;;8.02;100.00;93526.69;2114360;28;20588;-79
2022/05/14 01:14:03;;;;;;;7.75;3.17;;;;;;;8.26;100.00;93536.44;2112998;28;20019;-81
2022/05/14 01:15:19;;;;;;;5.50;2.83;;;;;;;8.14;100.00;93528.91;2089795;28;20032;-79
2022/05/14 01:16:20;;;;;;;3.20;2.88;;;;;;;8.03;100.00;93530.84;2108578;28;20446;-81
2022/05/14 01:17:21;;;;;;;6.25;3.20;;;;;;;7.94;100.00;93523.31;2106429;28;20031;-80
2022/05/14 01:18:24;;;;;;;7.18;2.95;;;;;;;7.89;100.00;93531.69;2097812;28;20071;-79
2022/05/14 01:19:25;;;;;;;5.55;2.85;;;;;;;7.90;100.00;93533.22;2107508;28;20028;-79
2022/05/14 01:20:26;;;;;;;3.15;2.63;;;;;;;7.88;100.00;93529.44;2106322;28;20024;-78
2022/05/14 01:21:39;;;;;;;3.70;2.78;;;;;;;7.81;100.00;93525.66;2114600;28;20058;-81
2022/05/14 01:23:15;;;;;;;4.50;2.60;;;;;;;7.84;100.00;93524.13;2109813;28;20059;-81
2022/05/14 01:27:19;;;;;;;3.90;2.72;;;;;;;8.01;100.00;93522.53;2114474;28;20034;-80
2022/05/14 01:28:20;;;;;;;4.97;2.55;;;;;;;7.95;100.00;93521.41;2097674;28;20032;-79
2022/05/14 01:29:24;;;;;;;6.72;3.05;;;;;;;7.81;100.00;93528.34;2106284;28;20100;-81
2022/05/14 01:30:29;;;;;;;5.28;2.70;;;;;;;7.90;100.00;93525.25;2114400;28;20030;-81
2022/05/14 01:31:30;;;;;;;4.47;2.58;;;;;;;7.94;100.00;93523.31;2106709;28;20103;-81
2022/05/14 01:32:31;;;;;;;6.88;2.30;;;;;;;8.04;100.00;93535.81;2114499;28;20121;-80
2022/05/14 01:33:34;;;;;;;7.25;2.70;;;;;;;7.95;100.00;93530.16;2105775;28;20031;-80
2022/05/14 01:34:35;;;;;;;5.30;2.67;;;;;;;7.86;100.00;93529.81;2089917;28;20122;-79
2022/05/14 01:35:39;;;;;;;10.98;2.83;;;;;;;7.68;100.00;93529.91;2089732;28;20021;-79
2022/05/14 01:36:40;;;;;;;4.93;2.53;;;;;;;7.72;100.00;93533.28;2098490;28;20028;-80
2022/05/14 01:37:41;;;;;;;3.83;2.60;;;;;;;7.70;100.00;93530.25;2105574;28;20438;-80
2022/05/14 01:38:42;;;;;;;3.22;2.22;;;;;;;7.55;100.00;93542.88;2097122;28;20036;-79
2022/05/14 01:39:43;;;;;;;9.18;2.60;;;;;;;7.47;100.00;93533.41;2097767;28;20021;-79
2022/05/14 01:40:44;;;;;;;3.83;2.72;;;;;;;7.47;100.00;93532.66;2115263;28;20032;-80
2022/05/14 01:41:45;;;;;;;3.28;2.55;;;;;;;7.42;100.00;93536.47;2106089;28;20023;-80
2022/05/14 01:42:46;;;;;;;3.20;2.58;;;;;;;7.53;100.00;93539.81;2106127;28;20938;-80
2022/05/14 01:43:48;;;;;;;6.47;2.55;;;;;;;7.63;100.00;93534.84;2114420;28;20034;-81
2022/05/14 01:44:50;;;;;;;5.90;2.40;;;;;;;7.58;100.00;93538.66;2097943;28;20024;-82
2022/05/14 01:45:51;;;;;;;6.70;2.70;;;;;;;7.59;100.00;93534.84;2097787;28;20503;-81
2022/05/14 01:46:52;;;;;;;4.50;2.88;;;;;;;7.54;100.00;93528.03;2097723;28;20032;-80
2022/05/14 01:47:53;;;;;;;6.22;2.42;;;;;;;7.49;100.00;93540.97;2097750;28;20020;-80
2022/05/14 01:48:54;;;;;;;3.63;2.22;;;;;;;7.51;100.00;93531.50;2106158;28;20023;-80
2022/05/14 01:49:55;;;;;;;6.65;2.60;;;;;;;7.55;100.00;93534.91;2105468;28;20024;-81
2022/05/14 01:50:57;;;;;;;4.88;2.78;;;;;;;7.61;100.00;93534.50;2097334;28;20024;-80
2022/05/14 01:51:58;;;;;;;4.82;2.67;;;;;;;7.55;100.00;93526.91;2089756;28;20033;-80
2022/05/14 01:52:59;;;;;;;6.07;2.50;;;;;;;7.52;100.00;93532.25;2106109;28;20029;-81
2022/05/14 01:54:00;;;;;;;6.85;2.70;;;;;;;7.44;100.00;93522.78;2114208;28;20031;-80
2022/05/14 01:55:02;;;;;;;4.90;2.55;;;;;;;7.48;100.00;93521.59;2099727;28;20024;-81
2022/05/14 01:56:03;;;;;;;5.78;2.50;;;;;;;7.56;100.00;93523.09;2106077;28;20020;-80
2022/05/14 01:57:05;;;;;;;6.55;2.50;;;;;;;7.55;100.00;93516.28;2097640;28;20423;-80
2022/05/14 01:58:51;;;;;;;4.90;2.50;;;;;;;7.47;100.00;93527.31;2106151;28;20058;-81
2022/05/14 01:59:27;;;;;;;6.88;2.15;;;;;;;7.74;100.00;93522.28;2106817;28;20473;-81
2022/05/14 02:00:29;;;;;;;3.55;2.45;;;;;;;7.73;100.00;93520.75;2107360;28;20028;-79
2022/05/14 02:01:33;;;;;;;3.53;2.58;;;;;;;7.78;100.00;93531.75;2097189;28;20059;-79
2022/05/14 02:02:34;;;;;;;7.10;2.45;;;;;;;7.77;100.00;93532.13;2098229;28;20098;-80
2022/05/14 02:03:36;;;;;;;4.63;2.58;;;;;;;7.73;100.00;93523.44;2097968;28;20101;-81
2022/05/14 02:04:37;;;;;;;5.40;2.20;;;;;;;7.71;100.00;93526.47;2105662;28;20634;-80
2022/05/14 02:05:38;;;;;;;4.30;2.67;;;;;;;7.60;100.00;93530.31;2114227;28;20068;-80
2022/05/14 02:06:40;;;;;;;2.92;2.38;;;;;;;7.49;100.00;93533.00;2097513;28;20031;-79
2022/05/14 02:07:41;;;;;;;3.90;2.17;;;;;;;7.45;100.00;93526.94;2105844;28;20388;-80
2022/05/14 02:08:42;;;;;;;4.53;2.42;;;;;;;7.38;100.00;93527.72;2105867;28;20038;-79
2022/05/14 02:09:43;;;;;;;3.05;2.35;;;;;;;7.44;100.00;93528.84;2111249;28;20803;-79
2022/05/14 02:10:44;;;;;;;3.20;2.40;;;;;;;7.48;100.00;93526.19;2105529;28;20043;-81
2022/05/14 02:13:12;;;;;;;;;;;;;;;7.62;100.00;93534.09;2139876;27;20181;-80
2022/05/14 02:14:13;;;;;;;3.58;1.85;;;;;;;7.61;100.00;93537.16;2137654;27;19966;-80
2022/05/14 02:15:14;;;;;;;5.38;2.50;;;;;;;7.51;100.00;93528.81;2113018;28;20024;-80
2022/05/14 02:16:16;;;;;;;3.35;2.30;;;;;;;7.50;100.00;93529.94;2113062;28;20024;-79
2022/05/14 02:17:17;;;;;;;4.82;2.15;;;;;;;7.51;100.00;93533.38;2113475;28;20024;-81
2022/05/14 02:18:19;;;;;;;5.55;2.55;;;;;;;7.64;100.00;93528.38;2113052;28;20535;-80
2022/05/14 02:19:20;;;;;;;5.13;2.53;;;;;;;7.66;100.00;93528.78;2104813;28;20477;-79
2022/05/14 02:20:20;;;;;;;3.28;2.30;;;;;;;7.75;100.00;93529.84;2104593;28;20032;-81
2022/05/14 02:21:24;;;;;;;7.43;2.22;;;;;;;7.78;100.00;93536.31;2113507;27;20032;-81
2022/05/14 02:22:25;;;;;;;6.10;2.33;;;;;;;7.68;100.00;93529.91;2130375;27;20471;-79
2022/05/14 02:23:26;;;;;;;2.78;2.15;;;;;;;7.62;100.00;93536.00;2129915;27;20027;-81
2022/05/14 02:24:27;;;;;;;3.75;2.40;;;;;;;7.66;100.00;93536.75;2130027;27;20030;-81
2022/05/14 02:25:31;;;;;;;3.67;2.40;;;;;;;7.47;100.00;93532.66;2133151;27;20033;-79
2022/05/14 02:26:32;;;;;;;3.55;2.33;;;;;;;7.39;100.00;93534.56;2129255;27;20072;-81
2022/05/14 02:27:34;;;;;;;3.55;2.22;;;;;;;7.54;100.00;93530.69;2115004;27;20112;-80
2022/05/14 02:28:35;;;;;;;5.53;2.55;;;;;;;7.72;100.00;93532.53;2121464;27;20076;-81
2022/05/14 02:29:51;;;;;;;2.83;2.10;;;;;;;7.75;100.00;93526.44;2122933;27;20023;-79
2022/05/14 02:30:52;;;;;;;2.90;2.22;;;;;;;7.73;100.00;93524.19;2100378;28;20083;-80
2022/05/14 02:31:53;;;;;;;7.57;2.70;;;;;;;7.58;100.00;93531.44;2113118;28;20019;-80
2022/05/14 02:32:55;;;;;;;3.00;2.20;;;;;;;7.43;100.00;93527.34;2112959;28;20027;-81
2022/05/14 02:33:56;;;;;;;3.95;2.30;;;;;;;7.47;100.00;93529.97;2113405;28;20443;-80
2022/05/14 02:34:59;;;;;;;5.00;2.67;;;;;;;7.46;100.00;93526.56;2112956;28;20039;-80
2022/05/14 02:36:00;;;;;;;4.45;2.30;;;;;;;7.47;100.00;93524.66;2112808;28;20027;-80
2022/05/14 02:37:01;;;;;;;4.57;2.42;;;;;;;7.32;100.00;93530.00;2104683;28;20028;-80
2022/05/14 02:38:02;;;;;;;2.75;2.20;;;;;;;7.46;100.00;93528.44;2103891;28;20027;-80
2022/05/14 02:39:04;;;;;;;3.67;2.42;;;;;;;7.48;100.00;93524.28;2109088;27;20070;-80
2022/05/14 02:40:06;;;;;;;3.13;2.13;;;;;;;7.45;100.00;93519.72;2117277;28;20564;-80
2022/05/14 02:41:08;;;;;;;2.70;1.98;;;;;;;7.31;100.00;93525.09;2105513;28;20021;-80
2022/05/14 02:42:09;;;;;;;2.40;2.10;;;;;;;7.29;100.00;93533.44;2104790;28;20028;-80
2022/05/14 02:43:10;;;;;;;6.15;2.40;;;;;;;7.23;100.00;93526.25;2113114;28;20019;-81
2022/05/14 02:44:11;;;;;;;3.05;2.03;;;;;;;7.22;100.00;93525.47;2112853;28;20024;-81
2022/05/14 02:45:12;;;;;;;5.13;2.10;;;;;;;7.24;100.00;93525.88;2096231;28;20021;-80
2022/05/14 02:46:13;;;;;;;6.80;2.38;;;;;;;7.38;100.00;93519.75;2096187;28;20358;-80
2022/05/14 02:47:15;;;;;;;2.40;2.00;;;;;;;7.28;100.00;93523.94;2096214;28;20691;-79
2022/05/14 02:48:16;;;;;;;4.32;2.10;;;;;;;7.45;100.00;93524.28;2104715;28;20020;-80
2022/05/14 02:49:17;;;;;;;2.58;1.80;;;;;;;7.46;100.00;93526.56;2112910;28;20056;-79
2022/05/14 02:50:19;;;;;;;2.05;1.73;;;;;;;7.43;100.00;93521.25;2129328;27;20035;-81
2022/05/14 02:51:20;;;;;;;2.78;2.15;;;;;;;7.44;100.00;93523.53;2132241;27;20026;-79
2022/05/14 02:52:21;;;;;;;2.53;2.10;;;;;;;7.37;100.00;93522.78;2125921;27;20059;-80
2022/05/14 02:53:24;;;;;;;3.90;1.83;;;;;;;7.27;100.00;93524.34;2130024;27;20495;-80
2022/05/14 02:54:25;;;;;;;3.85;2.22;;;;;;;7.22;100.00;93528.16;2121571;27;20023;-80
2022/05/14 02:55:26;;;;;;;2.92;1.98;;;;;;;7.25;100.00;93531.94;2121425;27;20876;-81
2022/05/14 02:56:27;;;;;;;3.53;1.85;;;;;;;7.26;100.00;93523.56;2129757;27;20052;-79
2022/05/14 02:57:28;;;;;;;2.72;1.65;;;;;;;7.18;100.00;93522.06;2121424;27;20031;-80
2022/05/14 02:59:48;;;;;;;2.13;1.83;;;;;;;7.15;100.00;93520.16;2138749;27;20593;-80
2022/05/14 03:00:49;;;;;;;3.15;1.88;;;;;;;7.24;100.00;93523.22;2129797;27;20031;-79
2022/05/14 03:01:50;;;;;;;3.80;2.00;;;;;;;7.29;100.00;93522.06;2111774;28;20023;-80
2022/05/14 03:02:52;;;;;;;3.75;2.03;;;;;;;7.28;100.00;93517.88;2112571;28;20047;-80
2022/05/14 03:03:53;;;;;;;4.60;2.22;;;;;;;7.27;100.00;93524.34;2121253;28;20113;-79
2022/05/14 03:04:54;;;;;;;4.55;1.65;;;;;;;7.23;100.00;93520.91;2104370;28;20028;-81
2022/05/14 03:05:55;;;;;;;2.67;1.88;;;;;;;7.04;100.00;93520.22;2099691;28;20116;-81
2022/05/14 03:06:58;;;;;;;2.78;1.98;;;;;;;7.00;100.00;93519.44;2104300;28;20020;-81
2022/05/14 03:07:59;;;;;;;3.60;1.92;;;;;;;7.02;100.00;93514.53;2104702;28;20024;-80
2022/05/14 03:09:00;;;;;;;4.75;2.22;;;;;;;7.04;100.00;93520.22;2104417;28;20028;-80
2022/05/14 03:10:01;;;;;;;2.40;1.90;;;;;;;6.96;100.00;93518.69;2112407;28;20024;-80
2022/05/14 03:11:02;;;;;;;5.13;2.03;;;;;;;7.17;100.00;93522.47;2118927;27;20015;-81
2022/05/14 03:12:05;;;;;;;6.53;1.90;;;;;;;7.11;100.00;93516.75;2112874;28;20115;-80
2022/05/14 03:13:06;;;;;;;6.00;2.00;;;;;;;7.06;100.00;93523.22;2104718;28;20515;-79
2022/05/14 03:14:10;;;;;;;5.35;1.90;;;;;;;6.95;100.00;93513.78;2120190;27;20019;-80
2022/05/14 03:15:12;;;;;;;3.08;1.90;;;;;;;6.80;100.00;93518.34;2121134;28;20475;-79
2022/05/14 03:16:13;;;;;;;2.72;1.73;;;;;;;6.92;100.00;93511.88;2104779;28;20024;-80
2022/05/14 03:17:15;;;;;;;2.95;1.67;;;;;;;6.96;100.00;93509.97;2112703;28;20023;-80
2022/05/14 03:18:16;;;;;;;6.07;1.80;;;;;;;6.98;100.00;93519.09;2121365;27;20016;-81
2022/05/14 03:19:17;;;;;;;3.67;1.50;;;;;;;6.89;100.00;93513.41;2121251;27;20027;-81
2022/05/14 03:20:18;;;;;;;2.03;1.73;;;;;;;6.82;100.00;93513.41;2129739;27;20034;-81
2022/05/14 03:21:19;;;;;;;2.80;1.95;;;;;;;6.75;100.00;93513.41;2112825;28;20051;-80
2022/05/14 03:22:20;;;;;;;2.28;1.70;;;;;;;6.85;100.00;93515.31;2108837;28;20116;-80
2022/05/14 03:23:21;;;;;;;2.03;1.63;;;;;;;6.67;100.00;93506.56;2104246;28;20066;-81
2022/05/14 03:24:23;;;;;;;2.35;1.80;;;;;;;6.80;100.00;93513.03;2099951;28;20044;-81
2022/05/14 03:25:25;;;;;;;4.13;1.52;;;;;;;6.80;100.00;93516.47;2098506;28;20017;-81
2022/05/14 03:26:26;;;;;;;4.22;1.95;;;;;;;6.75;100.00;93511.50;2098384;28;20515;-81
2022/05/14 03:27:27;;;;;;;6.35;2.10;;;;;;;6.71;100.00;93518.72;2090207;28;20086;-80
2022/05/14 03:28:28;;;;;;;4.95;1.60;;;;;;;6.69;100.00;93513.03;2082177;28;20030;-80
2022/05/14 03:29:29;;;;;;;2.45;1.90;;;;;;;6.54;100.00;93514.16;2082233;28;20025;-80
2022/05/14 03:30:30;;;;;;;5.80;1.63;;;;;;;6.59;100.00;93515.72;2090340;28;20032;-81
2022/05/14 03:31:31;;;;;;;6.38;1.90;;;;;;;6.65;100.00;93509.63;2098674;28;20074;-81
2022/05/14 03:32:32;;;;;;;2.45;2.00;;;;;;;6.43;100.00;93511.53;2100888;28;21958;-80
2022/05/14 03:33:33;;;;;;;6.38;1.73;;;;;;;6.44;100.00;93517.59;2090563;28;20091;-81
2022/05/14 03:34:36;;;;;;;5.30;1.55;;;;;;;6.42;100.00;93519.88;2081978;28;20079;-81
2022/05/14 03:35:37;;;;;;;4.03;1.58;;;;;;;6.53;100.00;93517.97;2090718;28;20021;-81
2022/05/14 03:36:39;;;;;;;2.70;1.50;;;;;;;6.46;100.00;93516.09;2090307;28;20021;-79
2022/05/14 03:37:40;;;;;;;4.65;2.10;;;;;;;6.46;100.00;93516.09;2090241;28;20478;-80
2022/05/14 03:38:42;;;;;;;3.70;1.75;;;;;;;6.52;100.00;93519.88;2098147;28;20042;-79
2022/05/14 03:39:43;;;;;;;2.15;1.70;;;;;;;6.53;100.00;93512.66;2090341;28;20108;-81
2022/05/14 03:40:44;;;;;;;3.22;2.17;;;;;;;6.57;100.00;93514.16;2097106;28;20047;-80
2022/05/14 03:41:45;;;;;;;2.00;1.80;;;;;;;6.53;100.00;93524.03;2106944;28;20020;-80
2022/05/14 03:42:46;;;;;;;2.72;1.60;;;;;;;6.56;100.00;93519.88;2115280;28;20024;-81
2022/05/14 03:43:48;;;;;;;2.75;1.70;;;;;;;6.55;100.00;93519.13;2106973;28;20016;-79
2022/05/14 03:44:49;;;;;;;2.30;1.83;;;;;;;6.45;100.00;93514.56;2107065;28;20488;-79
2022/05/14 03:45:50;;;;;;;7.80;1.80;;;;;;;6.38;100.00;93511.91;2098555;28;20024;-81
2022/05/14 03:46:51;;;;;;;4.43;1.90;;;;;;;6.47;100.00;93514.19;2098729;28;20115;-81
2022/05/14 03:47:52;;;;;;;3.83;1.83;;;;;;;6.48;100.00;93511.13;2106961;28;20031;-80
2022/05/14 03:48:53;;;;;;;3.13;1.65;;;;;;;6.62;100.00;93507.72;2093678;28;20031;-80
2022/05/14 03:49:54;;;;;;;2.13;1.70;;;;;;;6.60;100.00;93514.56;2089567;28;20056;-79
2022/05/14 03:50:55;;;;;;;3.60;1.70;;;;;;;6.69;100.00;93517.59;2089676;28;20040;-80
2022/05/14 03:51:56;;;;;;;5.68;1.95;;;;;;;6.58;100.00;93517.59;2082041;28;20021;-81
2022/05/14 03:52:57;;;;;;;2.17;1.50;;;;;;;6.60;100.00;93515.31;2081880;28;20021;-79
2022/05/14 03:53:58;;;;;;;3.00;1.60;;;;;;;6.56;100.00;93512.66;2106000;28;20032;-79
2022/05/14 03:55:00;;;;;;;1.38;1.27;;;;;;;6.58;100.00;93514.94;2106802;28;20020;-80
2022/05/14 03:56:01;;;;;;;2.47;1.80;;;;;;;6.49;100.00;93512.66;2098172;28;20020;-80
2022/05/14 03:57:02;;;;;;;2.53;1.63;;;;;;;6.52;100.00;93516.47;2090159;28;20077;-80
2022/05/14 03:58:03;;;;;;;3.75;1.85;;;;;;;6.38;100.00;93517.22;2090477;28;20099;-80
2022/05/14 03:59:04;;;;;;;5.00;1.52;;;;;;;6.43;100.00;93513.44;2098271;28;20025;-80
2022/05/14 04:00:07;;;;;;;2.95;1.65;;;;;;;6.46;100.00;93516.09;2090328;28;20044;-80
2022/05/14 04:01:09;;;;;;;4.43;1.40;;;;;;;6.45;100.00;93516.44;2098592;28;20035;-80
2022/05/14 04:02:10;;;;;;;3.33;1.90;;;;;;;6.40;100.00;93514.94;2105924;28;20106;-79
2022/05/14 04:03:11;;;;;;;3.80;1.33;;;;;;;6.45;100.00;93519.09;2098390;28;20017;-81
2022/05/14 04:04:12;;;;;;;2.92;1.52;;;;;;;6.49;100.00;93517.97;2106681;28;20032;-80
2022/05/14 04:05:14;;;;;;;5.30;1.58;;;;;;;6.49;100.00;93520.63;2106721;28;20142;-80
2022/05/14 04:06:15;;;;;;;2.22;1.50;;;;;;;6.49;100.00;93522.53;2098333;28;20017;-80
2022/05/14 04:07:16;;;;;;;2.33;1.60;;;;;;;6.47;100.00;93517.59;2106806;28;20024;-80
2022/05/14 04:08:17;;;;;;;2.78;1.60;;;;;;;6.52;100.00;93519.13;2090151;28;20466;-80
2022/05/14 04:09:18;;;;;;;2.58;1.73;;;;;;;6.56;100.00;93514.56;2081967;28;20038;-81
2022/05/14 04:10:20;;;;;;;2.78;1.58;;;;;;;6.74;100.00;93522.53;2086873;28;20094;-79
2022/05/14 04:11:21;;;;;;;1.85;1.60;;;;;;;6.82;100.00;93518.72;2098360;28;20107;-79
2022/05/14 04:12:22;;;;;;;3.40;2.30;;;;;;;6.87;100.00;93525.56;2098127;28;20091;-81
2022/05/14 04:13:23;;;;;;;1.58;1.48;;;;;;;6.93;100.00;93530.09;2115325;27;20024;-80
2022/05/14 04:14:24;;;;;;;3.95;1.55;;;;;;;6.87;100.00;93526.31;2114236;28;20027;-80
2022/05/14 04:15:25;;;;;;;1.88;1.60;;;;;;;6.90;100.00;93528.22;2098342;28;20032;-79
2022/05/14 04:16:26;;;;;;;2.92;1.45;;;;;;;6.94;100.00;93518.34;2098268;28;20035;-81
2022/05/14 04:17:28;;;;;;;8.02;2.10;;;;;;;7.05;100.00;93518.31;2098296;28;20512;-81
2022/05/14 04:18:29;;;;;;;4.40;1.73;;;;;;;7.01;100.00;93520.22;2098613;28;20048;-81
2022/05/14 04:19:30;;;;;;;4.72;1.73;;;;;;;7.09;100.00;93515.66;2091190;28;20041;-80
2022/05/14 04:20:31;;;;;;;3.10;1.80;;;;;;;7.13;100.00;93519.81;2089947;28;20020;-80
2022/05/14 04:21:32;;;;;;;3.05;1.77;;;;;;;7.18;100.00;93516.00;2089882;28;20032;-80
2022/05/14 04:22:34;;;;;;;4.00;1.80;;;;;;;7.24;100.00;93511.78;2090027;28;20028;-81
2022/05/14 04:23:35;;;;;;;4.68;1.67;;;;;;;7.53;100.00;93512.47;2081736;28;20119;-81
2022/05/14 04:24:36;;;;;;;4.35;1.70;;;;;;;7.77;100.00;93516.16;2092435;28;20466;-79
2022/05/14 04:25:37;;;;;;;4.38;1.83;;;;;;;7.55;100.00;93523.47;2106180;28;20491;-79
2022/05/14 04:26:38;;;;;;;3.92;1.67;;;;;;;7.55;100.00;93513.63;2097587;28;20028;-80
2022/05/14 04:27:44;;;;;;;4.30;1.80;;;;;;;7.45;100.00;93511.72;2098151;28;20026;-81
2022/05/14 04:28:46;;;;;;;4.65;1.55;;;;;;;7.49;100.00;93515.13;2099737;28;20122;-81
2022/05/14 04:29:47;;;;;;;3.95;1.85;;;;;;;7.53;100.00;93515.88;2106454;28;20028;-80
2022/05/14 04:30:50;;;;;;;3.53;1.48;;;;;;;7.52;100.00;93509.06;2098252;28;20031;-80
2022/05/14 04:31:51;;;;;;;2.00;1.80;;;;;;;7.52;100.00;93510.97;2098513;28;20033;-81
2022/05/14 04:32:52;;;;;;;5.53;1.75;;;;;;;7.56;100.00;93509.81;2106399;28;20019;-80
2022/05/14 04:33:53;;;;;;;1.95;1.75;;;;;;;7.73;100.00;93508.22;2106458;28;20511;-80
2022/05/14 04:34:55;;;;;;;6.00;1.70;;;;;;;7.76;100.00;93520.72;2098020;28;20058;-79
2022/05/14 04:36:18;;;;;;;4.63;2.05;;;;;;;7.79;100.00;93511.97;2097426;28;20016;-80
2022/05/14 04:37:19;;;;;;;3.00;2.20;;;;;;;7.78;100.00;93521.13;2101103;28;20092;-81
2022/05/14 04:38:21;;;;;;;5.68;4.40;;;;;;;7.82;100.00;93523.75;2089235;28;20025;-80
2022/05/14 04:39:31;;;;;;;8.00;4.35;;;;;;;7.85;100.00;93519.56;2090111;28;20052;-80
2022/05/14 04:40:32;;;;;;;;;;;;;;;7.79;100.00;93519.22;2099849;28;20031;-80
2022/05/14 04:41:33;;;;;;;5.38;3.63;;;;;;;7.82;100.00;93511.22;2089781;28;19913;-81
2022/05/14 04:42:38;;;;;;;5.00;3.30;;;;;;;7.86;100.00;93515.75;2089887;28;20025;-79
2022/05/14 04:43:39;;;;;;;6.18;3.78;;;;;;;7.92;100.00;93506.97;2090391;28;20539;-81
2022/05/14 04:44:39;;;;;;;4.30;3.00;;;;;;;7.94;100.00;93510.00;2089903;28;20021;-80
2022/05/14 04:45:42;;;;;;;5.35;2.60;;;;;;;8.03;100.00;93513.00;2106311;28;20031;-80
2022/05/14 04:46:43;;;;;;;4.03;2.80;;;;;;;8.10;100.00;93512.19;2106189;28;20054;-81
2022/05/14 04:47:44;;;;;;;2.63;2.38;;;;;;;8.11;100.00;93507.63;2106383;28;20020;-80
2022/05/14 04:48:45;;;;;;;5.43;2.40;;;;;;;8.14;100.00;93517.50;2097968;28;20021;-80
2022/05/14 04:49:47;;;;;;;14.05;2.38;;;;;;;8.13;100.00;93514.09;2097688;28;20469;-80
2022/05/14 04:50:48;;;;;;;2.85;1.80;;;;;;;8.37;100.00;93525.00;2101368;28;20491;-79
2022/05/14 04:51:49;;;;;;;2.70;1.50;;;;;;;8.44;100.00;93515.06;2089775;28;20113;-80
2022/05/14 04:52:50;;;;;;;2.97;1.67;;;;;;;8.33;100.00;93527.66;2089519;28;20028;-81
2022/05/14 04:53:51;;;;;;;6.10;1.83;;;;;;;8.37;100.00;93523.06;2098084;28;20131;-81
2022/05/14 04:54:52;;;;;;;5.40;2.00;;;;;;;8.37;100.00;93531.06;2114812;27;20020;-81
2022/05/14 04:55:53;;;;;;;3.33;1.60;;;;;;;8.24;100.00;93535.31;2111252;28;20020;-79
2022/05/14 04:56:55;;;;;;;4.68;1.98;;;;;;;8.27;100.00;93529.22;2091412;28;20044;-81
2022/05/14 04:57:58;;;;;;;2.97;1.67;;;;;;;8.14;100.00;93533.47;2123338;27;20047;-80
2022/05/14 04:58:59;;;;;;;2.67;1.73;;;;;;;8.29;100.00;93527.66;2123773;27;20034;-80
2022/05/14 05:00:00;;;;;;;5.47;1.80;;;;;;;8.32;100.00;93536.78;2123234;27;20023;-80
2022/05/14 05:01:01;;;;;;;2.72;1.63;;;;;;;8.43;100.00;93532.19;2099987;28;20870;-81
2022/05/14 05:03:23;;;;;;;4.07;2.05;;;;;;;8.35;100.00;93532.59;2094711;28;20052;-81